sensor_id;sensor_type;location;lat;lon;timestamp;P1;durP1;ratioP1;P2;durP2;ratioP2
13941;SDS011;7043;51.630;7.254;2023-01-10T00:01:41;14.53;;;8.30;;
13941;SDS011;7043;51.630;7.254;2023-01-10T00:04:07;16.13;;;8.20;;
13941;SDS011;7043;51.630;7.254;2023-01-10T00:06:33;16.87;;;8.20;;
13941;SDS011;7043;51.630;7.254;2023-01-10T00:08:59;12.73;;;7.87;;
13941;SDS011;7043;51.630;7.254;2023-01-10T00:11:25;15.80;;;8.73;;
13941;SDS011;7043;51.630;7.254;2023-01-10T00:14:09;14.60;;;7.73;;
13941;SDS011;7043;51.630;7.254;2023-01-10T00:16:36;12.30;;;8.40;;
13941;SDS011;7043;51.630;7.254;2023-01-10T00:19:03;16.37;;;8.53;;
13941;SDS011;7043;51.630;7.254;2023-01-10T00:21:29;16.40;;;9.10;;
13941;SDS011;7043;51.630;7.254;2023-01-10T00:23:55;14.73;;;8.43;;
13941;SDS011;7043;51.630;7.254;2023-01-10T00:26:40;12.47;;;7.67;;
13941;SDS011;7043;51.630;7.254;2023-01-10T00:29:07;14.03;;;8.20;;
13941;SDS011;7043;51.630;7.254;2023-01-10T00:31:33;15.13;;;8.60;;
13941;SDS011;7043;51.630;7.254;2023-01-10T00:33:59;16.67;;;8.80;;
13941;SDS011;7043;51.630;7.254;2023-01-10T00:36:25;16.27;;;8.40;;
13941;SDS011;7043;51.630;7.254;2023-01-10T00:38:51;18.10;;;8.53;;
13941;SDS011;7043;51.630;7.254;2023-01-10T00:41:17;19.83;;;9.97;;
13941;SDS011;7043;51.630;7.254;2023-01-10T00:44:09;17.00;;;9.33;;
13941;SDS011;7043;51.630;7.254;2023-01-10T00:46:35;15.47;;;8.63;;
13941;SDS011;7043;51.630;7.254;2023-01-10T00:49:01;15.77;;;8.93;;
13941;SDS011;7043;51.630;7.254;2023-01-10T00:51:30;18.40;;;8.77;;
13941;SDS011;7043;51.630;7.254;2023-01-10T00:53:56;14.10;;;8.80;;
13941;SDS011;7043;51.630;7.254;2023-01-10T00:56:22;14.43;;;9.10;;
13941;SDS011;7043;51.630;7.254;2023-01-10T00:58:48;18.93;;;10.30;;
13941;SDS011;7043;51.630;7.254;2023-01-10T01:01:14;20.37;;;10.10;;
13941;SDS011;7043;51.630;7.254;2023-01-10T01:03:40;16.23;;;10.93;;
13941;SDS011;7043;51.630;7.254;2023-01-10T01:06:06;15.87;;;9.63;;
13941;SDS011;7043;51.630;7.254;2023-01-10T01:08:33;20.67;;;9.40;;
13941;SDS011;7043;51.630;7.254;2023-01-10T01:10:59;15.30;;;8.70;;
13941;SDS011;7043;51.630;7.254;2023-01-10T01:13:25;18.20;;;9.20;;
13941;SDS011;7043;51.630;7.254;2023-01-10T01:15:51;13.90;;;9.73;;
13941;SDS011;7043;51.630;7.254;2023-01-10T01:18:19;16.00;;;9.10;;
13941;SDS011;7043;51.630;7.254;2023-01-10T01:20:46;14.67;;;8.40;;
13941;SDS011;7043;51.630;7.254;2023-01-10T01:23:13;17.50;;;9.07;;
13941;SDS011;7043;51.630;7.254;2023-01-10T01:25:39;16.37;;;8.90;;
13941;SDS011;7043;51.630;7.254;2023-01-10T01:28:05;16.13;;;8.43;;
13941;SDS011;7043;51.630;7.254;2023-01-10T01:30:32;16.43;;;8.57;;
13941;SDS011;7043;51.630;7.254;2023-01-10T01:32:58;14.33;;;8.43;;
13941;SDS011;7043;51.630;7.254;2023-01-10T01:35:24;16.27;;;8.30;;
13941;SDS011;7043;51.630;7.254;2023-01-10T01:37:50;14.33;;;9.00;;
13941;SDS011;7043;51.630;7.254;2023-01-10T01:40:17;16.70;;;8.03;;
13941;SDS011;7043;51.630;7.254;2023-01-10T01:42:44;14.07;;;8.90;;
13941;SDS011;7043;51.630;7.254;2023-01-10T01:47:46;15.43;;;7.20;;
13941;SDS011;7043;51.630;7.254;2023-01-10T01:50:18;14.90;;;8.17;;
13941;SDS011;7043;51.630;7.254;2023-01-10T01:52:45;18.17;;;8.53;;
13941;SDS011;7043;51.630;7.254;2023-01-10T01:55:13;16.00;;;8.03;;
13941;SDS011;7043;51.630;7.254;2023-01-10T01:57:40;13.90;;;7.60;;
13941;SDS011;7043;51.630;7.254;2023-01-10T02:00:06;16.37;;;7.60;;
13941;SDS011;7043;51.630;7.254;2023-01-10T02:02:35;15.23;;;7.00;;
13941;SDS011;7043;51.630;7.254;2023-01-10T02:05:02;13.70;;;7.37;;
13941;SDS011;7043;51.630;7.254;2023-01-10T02:07:30;14.33;;;6.87;;
13941;SDS011;7043;51.630;7.254;2023-01-10T02:10:08;15.27;;;7.03;;
13941;SDS011;7043;51.630;7.254;2023-01-10T02:12:35;15.53;;;6.40;;
13941;SDS011;7043;51.630;7.254;2023-01-10T02:15:02;16.37;;;6.83;;
13941;SDS011;7043;51.630;7.254;2023-01-10T02:17:28;12.43;;;6.50;;
13941;SDS011;7043;51.630;7.254;2023-01-10T02:19:55;16.33;;;6.87;;
13941;SDS011;7043;51.630;7.254;2023-01-10T02:30:05;15.13;;;6.27;;
13941;SDS011;7043;51.630;7.254;2023-01-10T02:32:37;13.27;;;6.10;;
13941;SDS011;7043;51.630;7.254;2023-01-10T02:40:22;12.53;;;4.87;;
13941;SDS011;7043;51.630;7.254;2023-01-10T02:45:21;14.07;;;4.83;;
13941;SDS011;7043;51.630;7.254;2023-01-10T02:47:49;14.50;;;5.13;;
13941;SDS011;7043;51.630;7.254;2023-01-10T02:50:29;12.00;;;5.27;;
13941;SDS011;7043;51.630;7.254;2023-01-10T02:52:57;11.77;;;4.77;;
13941;SDS011;7043;51.630;7.254;2023-01-10T02:55:30;16.13;;;5.17;;
13941;SDS011;7043;51.630;7.254;2023-01-10T02:58:13;11.00;;;5.00;;
13941;SDS011;7043;51.630;7.254;2023-01-10T03:00:52;12.47;;;4.77;;
13941;SDS011;7043;51.630;7.254;2023-01-10T03:05:53;12.40;;;4.50;;
13941;SDS011;7043;51.630;7.254;2023-01-10T03:10:51;14.43;;;5.20;;
13941;SDS011;7043;51.630;7.254;2023-01-10T03:13:28;11.20;;;5.20;;
13941;SDS011;7043;51.630;7.254;2023-01-10T03:15:55;13.43;;;4.80;;
13941;SDS011;7043;51.630;7.254;2023-01-10T03:18:22;9.77;;;3.80;;
13941;SDS011;7043;51.630;7.254;2023-01-10T03:20:50;13.90;;;5.00;;
13941;SDS011;7043;51.630;7.254;2023-01-10T03:23:17;13.80;;;4.50;;
13941;SDS011;7043;51.630;7.254;2023-01-10T03:25:43;14.97;;;5.17;;
13941;SDS011;7043;51.630;7.254;2023-01-10T03:28:32;15.37;;;4.93;;
13941;SDS011;7043;51.630;7.254;2023-01-10T03:30:58;17.93;;;5.03;;
13941;SDS011;7043;51.630;7.254;2023-01-10T03:33:27;14.53;;;4.57;;
13941;SDS011;7043;51.630;7.254;2023-01-10T03:38:34;15.50;;;4.70;;
13941;SDS011;7043;51.630;7.254;2023-01-10T03:41:11;13.03;;;3.67;;
13941;SDS011;7043;51.630;7.254;2023-01-10T03:43:43;20.57;;;4.87;;
13941;SDS011;7043;51.630;7.254;2023-01-10T03:46:36;13.00;;;4.20;;
13941;SDS011;7043;51.630;7.254;2023-01-10T03:49:05;13.57;;;4.77;;
13941;SDS011;7043;51.630;7.254;2023-01-10T03:51:32;10.33;;;4.20;;
13941;SDS011;7043;51.630;7.254;2023-01-10T03:54:01;9.87;;;4.10;;
13941;SDS011;7043;51.630;7.254;2023-01-10T03:56:27;12.17;;;4.80;;
13941;SDS011;7043;51.630;7.254;2023-01-10T03:58:53;14.00;;;4.83;;
13941;SDS011;7043;51.630;7.254;2023-01-10T04:01:19;12.97;;;5.63;;
13941;SDS011;7043;51.630;7.254;2023-01-10T04:03:45;16.67;;;6.53;;
13941;SDS011;7043;51.630;7.254;2023-01-10T04:06:11;12.63;;;6.37;;
13941;SDS011;7043;51.630;7.254;2023-01-10T04:08:37;15.40;;;6.90;;
13941;SDS011;7043;51.630;7.254;2023-01-10T04:11:03;11.80;;;5.67;;
13941;SDS011;7043;51.630;7.254;2023-01-10T04:13:29;13.67;;;6.07;;
13941;SDS011;7043;51.630;7.254;2023-01-10T04:15:58;16.77;;;6.80;;
13941;SDS011;7043;51.630;7.254;2023-01-10T04:18:23;15.57;;;6.37;;
13941;SDS011;7043;51.630;7.254;2023-01-10T04:20:49;11.93;;;6.07;;
13941;SDS011;7043;51.630;7.254;2023-01-10T04:23:15;16.27;;;7.10;;
13941;SDS011;7043;51.630;7.254;2023-01-10T04:25:45;12.20;;;5.97;;
13941;SDS011;7043;51.630;7.254;2023-01-10T04:28:11;10.80;;;5.80;;
13941;SDS011;7043;51.630;7.254;2023-01-10T04:30:37;13.13;;;5.70;;
13941;SDS011;7043;51.630;7.254;2023-01-10T04:33:03;13.60;;;5.50;;
13941;SDS011;7043;51.630;7.254;2023-01-10T04:35:29;13.67;;;5.30;;
13941;SDS011;7043;51.630;7.254;2023-01-10T04:37:54;14.53;;;5.20;;
13941;SDS011;7043;51.630;7.254;2023-01-10T04:40:21;15.83;;;5.57;;
13941;SDS011;7043;51.630;7.254;2023-01-10T04:42:47;17.50;;;5.57;;
13941;SDS011;7043;51.630;7.254;2023-01-10T04:45:13;14.77;;;5.90;;
13941;SDS011;7043;51.630;7.254;2023-01-10T04:47:41;16.83;;;5.60;;
13941;SDS011;7043;51.630;7.254;2023-01-10T04:50:07;14.63;;;5.60;;
13941;SDS011;7043;51.630;7.254;2023-01-10T04:52:34;16.30;;;5.40;;
13941;SDS011;7043;51.630;7.254;2023-01-10T04:55:00;11.37;;;4.93;;
13941;SDS011;7043;51.630;7.254;2023-01-10T04:57:25;13.40;;;4.50;;
13941;SDS011;7043;51.630;7.254;2023-01-10T04:59:51;11.23;;;4.73;;
13941;SDS011;7043;51.630;7.254;2023-01-10T05:02:17;12.20;;;4.80;;
13941;SDS011;7043;51.630;7.254;2023-01-10T05:04:43;10.93;;;4.33;;
13941;SDS011;7043;51.630;7.254;2023-01-10T05:07:09;13.90;;;4.93;;
13941;SDS011;7043;51.630;7.254;2023-01-10T05:09:36;11.70;;;4.30;;
13941;SDS011;7043;51.630;7.254;2023-01-10T05:12:02;12.57;;;4.37;;
13941;SDS011;7043;51.630;7.254;2023-01-10T05:14:28;13.00;;;4.57;;
13941;SDS011;7043;51.630;7.254;2023-01-10T05:16:54;13.63;;;4.93;;
13941;SDS011;7043;51.630;7.254;2023-01-10T05:19:20;14.27;;;4.83;;
13941;SDS011;7043;51.630;7.254;2023-01-10T05:21:46;14.63;;;4.90;;
13941;SDS011;7043;51.630;7.254;2023-01-10T05:24:12;15.67;;;5.00;;
13941;SDS011;7043;51.630;7.254;2023-01-10T05:26:38;15.00;;;4.80;;
13941;SDS011;7043;51.630;7.254;2023-01-10T05:29:04;10.93;;;4.93;;
13941;SDS011;7043;51.630;7.254;2023-01-10T05:31:30;11.80;;;4.33;;
13941;SDS011;7043;51.630;7.254;2023-01-10T05:33:56;14.97;;;4.83;;
13941;SDS011;7043;51.630;7.254;2023-01-10T05:36:22;18.43;;;5.07;;
13941;SDS011;7043;51.630;7.254;2023-01-10T05:38:48;12.50;;;4.60;;
13941;SDS011;7043;51.630;7.254;2023-01-10T05:41:14;16.60;;;6.47;;
13941;SDS011;7043;51.630;7.254;2023-01-10T05:43:40;14.00;;;5.90;;
13941;SDS011;7043;51.630;7.254;2023-01-10T05:46:07;12.17;;;4.90;;
13941;SDS011;7043;51.630;7.254;2023-01-10T05:48:33;14.90;;;5.17;;
13941;SDS011;7043;51.630;7.254;2023-01-10T05:50:59;13.37;;;4.77;;
13941;SDS011;7043;51.630;7.254;2023-01-10T05:53:25;15.33;;;4.73;;
13941;SDS011;7043;51.630;7.254;2023-01-10T05:55:57;10.00;;;4.37;;
13941;SDS011;7043;51.630;7.254;2023-01-10T05:58:24;10.80;;;4.63;;
13941;SDS011;7043;51.630;7.254;2023-01-10T06:00:50;13.80;;;4.43;;
13941;SDS011;7043;51.630;7.254;2023-01-10T06:03:17;16.30;;;4.70;;
13941;SDS011;7043;51.630;7.254;2023-01-10T06:05:43;10.77;;;4.93;;
13941;SDS011;7043;51.630;7.254;2023-01-10T06:08:09;15.83;;;4.87;;
13941;SDS011;7043;51.630;7.254;2023-01-10T06:10:36;13.73;;;4.90;;
13941;SDS011;7043;51.630;7.254;2023-01-10T06:13:03;14.00;;;4.53;;
13941;SDS011;7043;51.630;7.254;2023-01-10T06:15:30;17.03;;;4.87;;
13941;SDS011;7043;51.630;7.254;2023-01-10T06:17:56;15.30;;;4.47;;
13941;SDS011;7043;51.630;7.254;2023-01-10T06:20:22;15.50;;;4.80;;
13941;SDS011;7043;51.630;7.254;2023-01-10T06:22:48;16.27;;;5.13;;
13941;SDS011;7043;51.630;7.254;2023-01-10T06:25:14;18.63;;;5.83;;
13941;SDS011;7043;51.630;7.254;2023-01-10T06:27:41;19.07;;;5.13;;
13941;SDS011;7043;51.630;7.254;2023-01-10T06:30:08;13.37;;;4.97;;
13941;SDS011;7043;51.630;7.254;2023-01-10T06:32:34;17.00;;;5.37;;
13941;SDS011;7043;51.630;7.254;2023-01-10T06:35:00;18.60;;;4.70;;
13941;SDS011;7043;51.630;7.254;2023-01-10T06:37:26;12.47;;;4.97;;
13941;SDS011;7043;51.630;7.254;2023-01-10T06:39:52;13.60;;;4.97;;
13941;SDS011;7043;51.630;7.254;2023-01-10T06:42:18;13.83;;;4.70;;
13941;SDS011;7043;51.630;7.254;2023-01-10T06:44:44;13.43;;;4.80;;
13941;SDS011;7043;51.630;7.254;2023-01-10T06:47:10;15.47;;;6.10;;
13941;SDS011;7043;51.630;7.254;2023-01-10T06:49:36;15.07;;;5.23;;
13941;SDS011;7043;51.630;7.254;2023-01-10T06:52:02;13.47;;;4.47;;
13941;SDS011;7043;51.630;7.254;2023-01-10T06:54:31;20.37;;;5.20;;
13941;SDS011;7043;51.630;7.254;2023-01-10T06:56:57;23.13;;;5.53;;
13941;SDS011;7043;51.630;7.254;2023-01-10T06:59:23;15.27;;;4.97;;
13941;SDS011;7043;51.630;7.254;2023-01-10T07:01:52;18.03;;;5.40;;
13941;SDS011;7043;51.630;7.254;2023-01-10T07:04:18;18.47;;;4.93;;
13941;SDS011;7043;51.630;7.254;2023-01-10T07:06:44;12.30;;;5.00;;
13941;SDS011;7043;51.630;7.254;2023-01-10T07:09:10;16.30;;;5.10;;
13941;SDS011;7043;51.630;7.254;2023-01-10T07:11:36;16.37;;;4.60;;
13941;SDS011;7043;51.630;7.254;2023-01-10T07:14:02;18.20;;;5.33;;
13941;SDS011;7043;51.630;7.254;2023-01-10T07:16:28;13.40;;;4.23;;
13941;SDS011;7043;51.630;7.254;2023-01-10T07:18:54;13.50;;;5.20;;
13941;SDS011;7043;51.630;7.254;2023-01-10T07:21:20;21.07;;;4.93;;
13941;SDS011;7043;51.630;7.254;2023-01-10T07:23:46;14.60;;;4.23;;
13941;SDS011;7043;51.630;7.254;2023-01-10T07:26:14;17.37;;;4.07;;
13941;SDS011;7043;51.630;7.254;2023-01-10T07:28:42;18.87;;;4.60;;
13941;SDS011;7043;51.630;7.254;2023-01-10T07:31:08;14.97;;;3.83;;
13941;SDS011;7043;51.630;7.254;2023-01-10T07:33:34;12.17;;;4.63;;
13941;SDS011;7043;51.630;7.254;2023-01-10T07:36:00;16.53;;;4.73;;
13941;SDS011;7043;51.630;7.254;2023-01-10T07:38:27;18.27;;;4.47;;
13941;SDS011;7043;51.630;7.254;2023-01-10T07:40:53;18.43;;;5.73;;
13941;SDS011;7043;51.630;7.254;2023-01-10T07:43:19;18.07;;;5.67;;
13941;SDS011;7043;51.630;7.254;2023-01-10T07:45:45;19.13;;;5.77;;
13941;SDS011;7043;51.630;7.254;2023-01-10T07:48:11;20.10;;;6.27;;
13941;SDS011;7043;51.630;7.254;2023-01-10T07:50:37;21.10;;;6.47;;
13941;SDS011;7043;51.630;7.254;2023-01-10T07:53:04;19.20;;;7.37;;
13941;SDS011;7043;51.630;7.254;2023-01-10T07:55:30;23.87;;;8.33;;
13941;SDS011;7043;51.630;7.254;2023-01-10T07:57:58;21.20;;;7.93;;
13941;SDS011;7043;51.630;7.254;2023-01-10T08:00:24;22.17;;;8.93;;
13941;SDS011;7043;51.630;7.254;2023-01-10T08:02:54;25.80;;;10.43;;
13941;SDS011;7043;51.630;7.254;2023-01-10T08:05:21;25.20;;;10.23;;
13941;SDS011;7043;51.630;7.254;2023-01-10T08:07:47;21.20;;;10.13;;
13941;SDS011;7043;51.630;7.254;2023-01-10T08:10:13;25.17;;;11.13;;
13941;SDS011;7043;51.630;7.254;2023-01-10T08:12:39;25.47;;;12.07;;
13941;SDS011;7043;51.630;7.254;2023-01-10T08:15:05;25.50;;;11.43;;
13941;SDS011;7043;51.630;7.254;2023-01-10T08:17:32;21.07;;;11.97;;
13941;SDS011;7043;51.630;7.254;2023-01-10T08:19:58;26.30;;;14.27;;
13941;SDS011;7043;51.630;7.254;2023-01-10T08:22:24;28.70;;;13.97;;
13941;SDS011;7043;51.630;7.254;2023-01-10T08:24:50;31.47;;;14.50;;
13941;SDS011;7043;51.630;7.254;2023-01-10T08:27:17;23.97;;;12.60;;
13941;SDS011;7043;51.630;7.254;2023-01-10T08:29:43;28.57;;;13.83;;
13941;SDS011;7043;51.630;7.254;2023-01-10T08:32:09;22.53;;;11.20;;
13941;SDS011;7043;51.630;7.254;2023-01-10T08:34:35;30.40;;;13.40;;
13941;SDS011;7043;51.630;7.254;2023-01-10T08:37:01;27.20;;;12.87;;
13941;SDS011;7043;51.630;7.254;2023-01-10T08:39:27;30.43;;;12.87;;
13941;SDS011;7043;51.630;7.254;2023-01-10T08:41:54;20.60;;;10.63;;
13941;SDS011;7043;51.630;7.254;2023-01-10T08:44:20;27.70;;;12.33;;
13941;SDS011;7043;51.630;7.254;2023-01-10T08:46:46;19.23;;;8.13;;
13941;SDS011;7043;51.630;7.254;2023-01-10T08:49:12;30.50;;;11.43;;
13941;SDS011;7043;51.630;7.254;2023-01-10T08:51:38;26.03;;;12.43;;
13941;SDS011;7043;51.630;7.254;2023-01-10T08:54:05;26.27;;;11.97;;
13941;SDS011;7043;51.630;7.254;2023-01-10T08:56:31;22.30;;;9.63;;
13941;SDS011;7043;51.630;7.254;2023-01-10T08:58:57;26.90;;;10.43;;
13941;SDS011;7043;51.630;7.254;2023-01-10T09:01:23;25.90;;;9.20;;
13941;SDS011;7043;51.630;7.254;2023-01-10T09:03:49;28.57;;;10.43;;
13941;SDS011;7043;51.630;7.254;2023-01-10T09:06:15;24.07;;;10.00;;
13941;SDS011;7043;51.630;7.254;2023-01-10T09:08:40;23.83;;;8.07;;
13941;SDS011;7043;51.630;7.254;2023-01-10T09:11:06;21.50;;;7.97;;
13941;SDS011;7043;51.630;7.254;2023-01-10T09:13:32;23.87;;;8.33;;
13941;SDS011;7043;51.630;7.254;2023-01-10T09:15:59;21.97;;;8.80;;
13941;SDS011;7043;51.630;7.254;2023-01-10T09:18:25;21.10;;;6.87;;
13941;SDS011;7043;51.630;7.254;2023-01-10T09:20:51;24.87;;;8.53;;
13941;SDS011;7043;51.630;7.254;2023-01-10T09:23:18;22.30;;;7.20;;
13941;SDS011;7043;51.630;7.254;2023-01-10T09:25:45;22.40;;;7.43;;
13941;SDS011;7043;51.630;7.254;2023-01-10T09:28:12;23.57;;;7.67;;
13941;SDS011;7043;51.630;7.254;2023-01-10T09:30:38;20.63;;;6.60;;
13941;SDS011;7043;51.630;7.254;2023-01-10T09:33:04;22.23;;;7.47;;
13941;SDS011;7043;51.630;7.254;2023-01-10T09:35:30;22.07;;;6.50;;
13941;SDS011;7043;51.630;7.254;2023-01-10T09:37:58;21.23;;;6.73;;
13941;SDS011;7043;51.630;7.254;2023-01-10T09:43:19;18.43;;;7.43;;
13941;SDS011;7043;51.630;7.254;2023-01-10T09:46:07;19.00;;;7.57;;
13941;SDS011;7043;51.630;7.254;2023-01-10T09:53:30;22.67;;;6.93;;
13941;SDS011;7043;51.630;7.254;2023-01-10T09:55:58;14.03;;;5.10;;
13941;SDS011;7043;51.630;7.254;2023-01-10T09:58:26;19.20;;;6.37;;
13941;SDS011;7043;51.630;7.254;2023-01-10T10:03:34;19.97;;;6.10;;
13941;SDS011;7043;51.630;7.254;2023-01-10T10:06:02;27.33;;;7.47;;
13941;SDS011;7043;51.630;7.254;2023-01-10T10:08:29;22.23;;;6.67;;
13941;SDS011;7043;51.630;7.254;2023-01-10T10:18:52;20.27;;;6.17;;
13941;SDS011;7043;51.630;7.254;2023-01-10T10:21:33;14.97;;;5.00;;
13941;SDS011;7043;51.630;7.254;2023-01-10T10:26:32;22.37;;;6.03;;
13941;SDS011;7043;51.630;7.254;2023-01-10T10:34:24;18.07;;;5.13;;
13941;SDS011;7043;51.630;7.254;2023-01-10T10:37:02;22.23;;;5.53;;
13941;SDS011;7043;51.630;7.254;2023-01-10T10:42:16;15.67;;;4.60;;
13941;SDS011;7043;51.630;7.254;2023-01-10T10:44:53;20.97;;;5.23;;
13941;SDS011;7043;51.630;7.254;2023-01-10T10:47:20;16.93;;;4.60;;
13941;SDS011;7043;51.630;7.254;2023-01-10T10:50:03;22.63;;;4.93;;
13941;SDS011;7043;51.630;7.254;2023-01-10T10:52:34;21.33;;;6.10;;
13941;SDS011;7043;51.630;7.254;2023-01-10T10:55:02;25.93;;;5.43;;
13941;SDS011;7043;51.630;7.254;2023-01-10T10:57:28;18.63;;;4.53;;
13941;SDS011;7043;51.630;7.254;2023-01-10T10:59:55;16.83;;;4.10;;
13941;SDS011;7043;51.630;7.254;2023-01-10T11:02:25;23.33;;;5.63;;
13941;SDS011;7043;51.630;7.254;2023-01-10T11:04:54;19.77;;;4.77;;
13941;SDS011;7043;51.630;7.254;2023-01-10T11:07:20;18.50;;;4.93;;
13941;SDS011;7043;51.630;7.254;2023-01-10T11:09:46;18.93;;;5.17;;
13941;SDS011;7043;51.630;7.254;2023-01-10T11:12:28;13.73;;;4.00;;
13941;SDS011;7043;51.630;7.254;2023-01-10T11:14:56;20.27;;;4.77;;
13941;SDS011;7043;51.630;7.254;2023-01-10T11:17:27;19.77;;;4.00;;
13941;SDS011;7043;51.630;7.254;2023-01-10T11:20:12;16.07;;;4.13;;
13941;SDS011;7043;51.630;7.254;2023-01-10T11:22:39;18.83;;;4.83;;
13941;SDS011;7043;51.630;7.254;2023-01-10T11:25:19;18.03;;;4.50;;
13941;SDS011;7043;51.630;7.254;2023-01-10T11:27:47;17.97;;;4.40;;
13941;SDS011;7043;51.630;7.254;2023-01-10T11:30:19;14.83;;;4.17;;
13941;SDS011;7043;51.630;7.254;2023-01-10T11:32:56;19.30;;;4.03;;
13941;SDS011;7043;51.630;7.254;2023-01-10T11:35:26;19.80;;;3.93;;
13941;SDS011;7043;51.630;7.254;2023-01-10T11:40:25;15.50;;;3.87;;
13941;SDS011;7043;51.630;7.254;2023-01-10T11:42:52;18.50;;;4.17;;
13941;SDS011;7043;51.630;7.254;2023-01-10T11:47:47;19.17;;;4.77;;
13941;SDS011;7043;51.630;7.254;2023-01-10T11:50:16;19.33;;;4.80;;
13941;SDS011;7043;51.630;7.254;2023-01-10T11:52:45;19.43;;;4.90;;
13941;SDS011;7043;51.630;7.254;2023-01-10T11:55:16;16.50;;;3.50;;
13941;SDS011;7043;51.630;7.254;2023-01-10T11:57:43;15.30;;;3.70;;
13941;SDS011;7043;51.630;7.254;2023-01-10T12:00:09;13.53;;;3.70;;
13941;SDS011;7043;51.630;7.254;2023-01-10T12:02:39;13.97;;;3.30;;
13941;SDS011;7043;51.630;7.254;2023-01-10T12:05:06;18.67;;;3.67;;
13941;SDS011;7043;51.630;7.254;2023-01-10T12:10:19;20.23;;;4.20;;
13941;SDS011;7043;51.630;7.254;2023-01-10T12:12:56;20.63;;;3.90;;
13941;SDS011;7043;51.630;7.254;2023-01-10T12:15:26;14.70;;;3.73;;
13941;SDS011;7043;51.630;7.254;2023-01-10T12:17:56;12.23;;;3.40;;
13941;SDS011;7043;51.630;7.254;2023-01-10T12:20:27;14.07;;;4.20;;
13941;SDS011;7043;51.630;7.254;2023-01-10T12:22:54;12.83;;;3.80;;
13941;SDS011;7043;51.630;7.254;2023-01-10T12:27:48;21.87;;;4.30;;
13941;SDS011;7043;51.630;7.254;2023-01-10T12:30:38;16.30;;;4.00;;
13941;SDS011;7043;51.630;7.254;2023-01-10T12:33:05;21.30;;;3.97;;
13941;SDS011;7043;51.630;7.254;2023-01-10T12:35:52;13.67;;;3.70;;
13941;SDS011;7043;51.630;7.254;2023-01-10T12:38:24;14.07;;;3.73;;
13941;SDS011;7043;51.630;7.254;2023-01-10T12:41:12;16.47;;;4.23;;
13941;SDS011;7043;51.630;7.254;2023-01-10T12:44:00;13.07;;;3.50;;
13941;SDS011;7043;51.630;7.254;2023-01-10T12:46:46;17.47;;;4.07;;
13941;SDS011;7043;51.630;7.254;2023-01-10T12:49:17;15.30;;;3.90;;
13941;SDS011;7043;51.630;7.254;2023-01-10T12:51:46;17.73;;;4.27;;
13941;SDS011;7043;51.630;7.254;2023-01-10T12:54:15;12.47;;;3.90;;
13941;SDS011;7043;51.630;7.254;2023-01-10T12:56:43;16.67;;;4.70;;
13941;SDS011;7043;51.630;7.254;2023-01-10T12:59:22;15.87;;;4.40;;
13941;SDS011;7043;51.630;7.254;2023-01-10T13:01:54;18.37;;;3.87;;
13941;SDS011;7043;51.630;7.254;2023-01-10T13:04:23;17.13;;;4.20;;
13941;SDS011;7043;51.630;7.254;2023-01-10T13:06:50;17.17;;;3.90;;
13941;SDS011;7043;51.630;7.254;2023-01-10T13:09:18;16.30;;;3.93;;
13941;SDS011;7043;51.630;7.254;2023-01-10T13:14:28;18.70;;;3.77;;
13941;SDS011;7043;51.630;7.254;2023-01-10T13:16:57;20.83;;;4.43;;
13941;SDS011;7043;51.630;7.254;2023-01-10T13:19:27;12.93;;;3.70;;
13941;SDS011;7043;51.630;7.254;2023-01-10T13:22:16;14.67;;;3.73;;
13941;SDS011;7043;51.630;7.254;2023-01-10T13:24:53;13.03;;;3.83;;
13941;SDS011;7043;51.630;7.254;2023-01-10T13:27:19;17.47;;;4.30;;
13941;SDS011;7043;51.630;7.254;2023-01-10T13:29:45;15.03;;;4.40;;
13941;SDS011;7043;51.630;7.254;2023-01-10T13:32:23;13.60;;;3.60;;
13941;SDS011;7043;51.630;7.254;2023-01-10T13:34:49;15.23;;;3.67;;
13941;SDS011;7043;51.630;7.254;2023-01-10T13:37:30;13.20;;;4.30;;
13941;SDS011;7043;51.630;7.254;2023-01-10T13:39:59;14.10;;;3.67;;
13941;SDS011;7043;51.630;7.254;2023-01-10T13:51:04;12.30;;;3.33;;
13941;SDS011;7043;51.630;7.254;2023-01-10T13:55:28;19.50;;;3.63;;
13941;SDS011;7043;51.630;7.254;2023-01-10T14:05:55;14.30;;;3.33;;
13941;SDS011;7043;51.630;7.254;2023-01-10T14:08:21;10.50;;;3.43;;
13941;SDS011;7043;51.630;7.254;2023-01-10T14:10:47;8.40;;;2.57;;
13941;SDS011;7043;51.630;7.254;2023-01-10T14:13:28;14.50;;;3.23;;
13941;SDS011;7043;51.630;7.254;2023-01-10T14:15:57;13.30;;;3.20;;
13941;SDS011;7043;51.630;7.254;2023-01-10T14:18:31;15.53;;;3.73;;
13941;SDS011;7043;51.630;7.254;2023-01-10T14:21:05;12.10;;;3.43;;
13941;SDS011;7043;51.630;7.254;2023-01-10T14:23:35;12.13;;;2.93;;
13941;SDS011;7043;51.630;7.254;2023-01-10T14:26:02;13.47;;;3.27;;
13941;SDS011;7043;51.630;7.254;2023-01-10T14:28:29;10.40;;;2.83;;
13941;SDS011;7043;51.630;7.254;2023-01-10T14:31:06;16.70;;;3.93;;
13941;SDS011;7043;51.630;7.254;2023-01-10T14:33:33;13.93;;;3.00;;
13941;SDS011;7043;51.630;7.254;2023-01-10T14:36:01;13.50;;;3.00;;
13941;SDS011;7043;51.630;7.254;2023-01-10T14:38:28;11.03;;;3.13;;
13941;SDS011;7043;51.630;7.254;2023-01-10T14:43:47;11.73;;;2.73;;
13941;SDS011;7043;51.630;7.254;2023-01-10T14:51:51;12.93;;;3.43;;
13941;SDS011;7043;51.630;7.254;2023-01-10T14:54:19;10.37;;;2.80;;
13941;SDS011;7043;51.630;7.254;2023-01-10T14:56:48;10.87;;;2.90;;
13941;SDS011;7043;51.630;7.254;2023-01-10T14:59:21;11.03;;;2.83;;
13941;SDS011;7043;51.630;7.254;2023-01-10T15:01:52;11.23;;;3.13;;
13941;SDS011;7043;51.630;7.254;2023-01-10T15:04:20;9.90;;;2.90;;
13941;SDS011;7043;51.630;7.254;2023-01-10T15:07:29;13.03;;;3.33;;
13941;SDS011;7043;51.630;7.254;2023-01-10T15:09:37;9.63;;;3.20;;
13941;SDS011;7043;51.630;7.254;2023-01-10T15:12:04;13.43;;;2.83;;
13941;SDS011;7043;51.630;7.254;2023-01-10T15:14:32;7.10;;;2.30;;
13941;SDS011;7043;51.630;7.254;2023-01-10T15:17:01;12.83;;;2.70;;
13941;SDS011;7043;51.630;7.254;2023-01-10T15:19:32;10.43;;;2.73;;
13941;SDS011;7043;51.630;7.254;2023-01-10T15:21:58;10.87;;;2.53;;
13941;SDS011;7043;51.630;7.254;2023-01-10T15:24:34;11.70;;;3.00;;
13941;SDS011;7043;51.630;7.254;2023-01-10T15:27:05;9.73;;;2.60;;
13941;SDS011;7043;51.630;7.254;2023-01-10T15:29:32;10.40;;;2.93;;
13941;SDS011;7043;51.630;7.254;2023-01-10T15:32:05;8.77;;;2.80;;
13941;SDS011;7043;51.630;7.254;2023-01-10T15:34:32;12.83;;;4.50;;
13941;SDS011;7043;51.630;7.254;2023-01-10T15:36:59;14.90;;;4.00;;
13941;SDS011;7043;51.630;7.254;2023-01-10T15:39:26;10.70;;;3.03;;
13941;SDS011;7043;51.630;7.254;2023-01-10T15:41:54;9.77;;;3.07;;
13941;SDS011;7043;51.630;7.254;2023-01-10T15:44:42;9.73;;;3.20;;
13941;SDS011;7043;51.630;7.254;2023-01-10T15:50:01;12.87;;;3.57;;
13941;SDS011;7043;51.630;7.254;2023-01-10T15:52:28;7.80;;;2.87;;
13941;SDS011;7043;51.630;7.254;2023-01-10T15:54:54;12.23;;;2.77;;
13941;SDS011;7043;51.630;7.254;2023-01-10T15:59:50;9.07;;;3.40;;
13941;SDS011;7043;51.630;7.254;2023-01-10T16:02:20;8.17;;;2.90;;
13941;SDS011;7043;51.630;7.254;2023-01-10T16:04:51;9.40;;;2.70;;
13941;SDS011;7043;51.630;7.254;2023-01-10T16:09:51;8.67;;;2.90;;
13941;SDS011;7043;51.630;7.254;2023-01-10T16:12:22;11.07;;;3.90;;
13941;SDS011;7043;51.630;7.254;2023-01-10T16:15:14;8.83;;;2.67;;
13941;SDS011;7043;51.630;7.254;2023-01-10T16:17:41;11.03;;;2.90;;
13941;SDS011;7043;51.630;7.254;2023-01-10T16:20:11;10.17;;;3.13;;
13941;SDS011;7043;51.630;7.254;2023-01-10T16:22:37;12.13;;;3.23;;
13941;SDS011;7043;51.630;7.254;2023-01-10T16:25:04;9.23;;;2.67;;
13941;SDS011;7043;51.630;7.254;2023-01-10T16:27:30;9.77;;;2.93;;
13941;SDS011;7043;51.630;7.254;2023-01-10T16:29:56;8.83;;;3.00;;
13941;SDS011;7043;51.630;7.254;2023-01-10T16:32:22;10.53;;;3.20;;
13941;SDS011;7043;51.630;7.254;2023-01-10T16:34:48;11.10;;;3.87;;
13941;SDS011;7043;51.630;7.254;2023-01-10T16:37:13;8.67;;;3.57;;
13941;SDS011;7043;51.630;7.254;2023-01-10T16:39:39;11.50;;;3.10;;